Terminal Aerodrome Forecast
Issued by NWS

Home | Current Version | Previous Version | Text Only | Print | Product List | Glossary On
Versions: 1 2 3 4 5 6 7 8 9 10 11 12 13 14
000
FTUS42 KMLB 300529
TAFTIX
TAF
KTIX 300529Z 3006/0106 22004KT P6SM SCT035 SCT070
     FM301200 25006KT P6SM SCT030 BKN100
     FM301500 28007KT P6SM VCSH SCT025 BKN080 BKN200
     FM010300 22003KT P6SM VCSH FEW020 BKN250
      AMD NOT SKED TIL 301200=

USA.gov is the U.S. government's official web portal to all federal, state and local government web resources and services.